»·PEaware :: N642SP KSNA-KMHV

N642SP :: KSNA-KMHV

FLIGHT INFORMATION

Flight Status: Arrived
Operator: Privately registered:
United States
More flights under this callsign
Pilot: Wes T. (5776)
Aircraft: CESSNA 172 SKYHAWK
(C172)
More flights by this aircraft type
Origin: KSNA John Wayne-Orange Co
United States
Destination: KMHV Mojave
United States
More flights between these airports :: More routes between these airports
Route: +ANAHM6 DARTS BERRI V201 PMD
File this flight plan on PilotEdge
Remarks:
Altitude:
(Current/Filed)
9,000ft
Speed:
(Current/Filed)
103kts
Departed: 05-Sep-15 09:38 AM
Arrived: 05-Sep-15 10:29 AM
Distance/Time
Traveled:
84nm/0:51
Distance/Time
To Go:
Arrived

Flight Plot

Page will automatically refresh every two minutes.


Map Options




Map Legend


Flown Route
Filed Route
Departure Airport
Arrival Airport
Navaid (VOR, NDB)
Fix

Horizontal Profiles

Position Reports

Time Latitude Longitude Heading Altitude Ground
Speed
05-Sep-15 09:17 33.675522 -117.872531 209 59ft 0kts
05-Sep-15 09:18 33.675522 -117.872531 209 59ft 0kts
05-Sep-15 09:19 33.675520 -117.872532 209 59ft 0kts
05-Sep-15 09:20 33.675518 -117.872533 209 59ft 0kts
05-Sep-15 09:21 33.675517 -117.872534 209 59ft 0kts
05-Sep-15 09:22 33.675515 -117.872536 209 59ft 0kts
05-Sep-15 09:23 33.675514 -117.872537 209 59ft 0kts
05-Sep-15 09:24 33.675512 -117.872537 209 59ft 0kts
05-Sep-15 09:25 33.675511 -117.872538 209 59ft 0kts
05-Sep-15 09:26 33.675509 -117.872539 209 59ft 0kts
05-Sep-15 09:27 33.675508 -117.872540 209 59ft 0kts
05-Sep-15 09:28 33.675507 -117.872541 209 59ft 0kts
05-Sep-15 09:29 33.675506 -117.872542 209 59ft 0kts
05-Sep-15 09:30 33.675505 -117.872543 209 59ft 0kts
05-Sep-15 09:31 33.675503 -117.872543 209 59ft 0kts
05-Sep-15 09:32 33.675502 -117.872544 209 59ft 0kts
05-Sep-15 09:33 33.675501 -117.872545 209 59ft 0kts
05-Sep-15 09:34 33.675500 -117.872546 209 59ft 0kts
05-Sep-15 09:35 33.675498 -117.872547 209 59ft 0kts
05-Sep-15 09:36 33.675497 -117.872548 209 59ft 0kts
05-Sep-15 09:37 33.675496 -117.872548 209 59ft 0kts
05-Sep-15 09:38 33.675495 -117.872549 209 59ft 0kts
05-Sep-15 09:39 33.675336 -117.871390 118 59ft 9kts
05-Sep-15 09:40 33.677090 -117.869679 26 59ft 12kts
05-Sep-15 09:41 33.680957 -117.867369 26 59ft 13kts
05-Sep-15 09:42 33.681077 -117.866986 140 59ft 0kts
05-Sep-15 09:43 33.681070 -117.866979 140 59ft 0kts
05-Sep-15 09:44 33.680830 -117.866428 117 59ft 0kts
05-Sep-15 09:45 33.680820 -117.866405 116 59ft 0kts
05-Sep-15 09:46 33.680636 -117.866003 132 59ft 10kts
05-Sep-15 09:47 33.669189 -117.874286 223 436ft 80kts
05-Sep-15 09:48 33.653404 -117.901503 233 969ft 111kts
05-Sep-15 09:49 33.647991 -117.933394 303 1741ft 106kts
05-Sep-15 09:50 33.666188 -117.960088 322 2594ft 98kts
05-Sep-15 09:51 33.689268 -117.974924 326 3475ft 90kts
05-Sep-15 09:52 33.711639 -117.991213 321 4178ft 96kts
05-Sep-15 09:53 33.734663 -118.008702 321 4882ft 98kts
05-Sep-15 09:54 33.757953 -118.025610 321 5584ft 97kts
05-Sep-15 09:55 33.777522 -118.038606 320 6162ft 95kts
05-Sep-15 09:56 33.793202 -118.059616 314 6834ft 91kts
05-Sep-15 09:57 33.816433 -118.074354 323 7447ft 95kts
05-Sep-15 09:58 33.840413 -118.088207 323 8042ft 95kts
05-Sep-15 09:59 33.864273 -118.101934 322 8634ft 93kts
05-Sep-15 10:00 33.888562 -118.116085 323 9009ft 110kts
05-Sep-15 10:01 33.916965 -118.132619 324 9002ft 109kts
05-Sep-15 10:02 33.945678 -118.143726 351 9011ft 113kts
05-Sep-15 10:03 33.977618 -118.143563 351 9004ft 114kts
05-Sep-15 10:04 34.010147 -118.143611 351 9005ft 117kts
05-Sep-15 10:05 34.042905 -118.143727 351 9013ft 118kts
05-Sep-15 10:06 34.075942 -118.144028 351 9015ft 118kts
05-Sep-15 10:07 34.109191 -118.144029 355 9030ft 120kts
05-Sep-15 10:08 34.142722 -118.142682 355 9038ft 121kts
05-Sep-15 10:09 34.175163 -118.128514 22 9037ft 127kts
05-Sep-15 10:10 34.209245 -118.117736 7 9032ft 127kts
05-Sep-15 10:11 34.244581 -118.112647 4 9033ft 127kts
05-Sep-15 10:12 34.279849 -118.108259 4 9032ft 127kts
05-Sep-15 10:13 34.315192 -118.103901 4 9033ft 127kts
05-Sep-15 10:14 34.350496 -118.099548 4 9033ft 127kts
05-Sep-15 10:15 34.385750 -118.095206 5 9031ft 127kts
05-Sep-15 10:16 34.420933 -118.090850 5 9031ft 127kts
05-Sep-15 10:17 34.456172 -118.086459 1 9032ft 126kts
05-Sep-15 10:18 34.491155 -118.082137 359 9031ft 125kts
05-Sep-15 10:19 34.526666 -118.077806 359 8771ft 135kts
05-Sep-15 10:20 34.563028 -118.082752 344 8171ft 132kts
05-Sep-15 10:21 34.599897 -118.088603 346 7566ft 132kts
05-Sep-15 10:22 34.633032 -118.093097 344 6936ft 112kts
05-Sep-15 10:23 34.662865 -118.097196 344 6331ft 105kts
05-Sep-15 10:24 34.691876 -118.101237 344 6026ft 101kts
05-Sep-15 10:25 34.719316 -118.105025 342 6018ft 99kts
05-Sep-15 10:26 34.748981 -118.109374 344 6027ft 111kts
05-Sep-15 10:27 34.780235 -118.113832 344 6026ft 113kts
05-Sep-15 10:28 34.811739 -118.118283 344 6013ft 113kts
05-Sep-15 10:29 34.841559 -118.122200 346 6000ft 105kts
05-Sep-15 10:30 34.871141 -118.123294 347 5956ft 107kts
05-Sep-15 10:31 34.901012 -118.123325 352 5862ft 106kts
05-Sep-15 10:32 34.932817 -118.121669 352 5424ft 119kts
05-Sep-15 10:33 34.966233 -118.120034 354 4517ft 115kts
05-Sep-15 10:34 34.993143 -118.118951 350 3965ft 86kts
05-Sep-15 10:35 35.016193 -118.122387 338 3617ft 69kts
05-Sep-15 10:36 35.037100 -118.126394 347 3318ft 80kts
05-Sep-15 10:37 35.057414 -118.128705 304 3185ft 64kts
05-Sep-15 10:38 35.059170 -118.146467 267 2794ft 27kts
05-Sep-15 10:39 35.058736 -118.150117 136 2794ft 0kts
05-Sep-15 10:40 35.058735 -118.150116 136 2794ft 0kts
05-Sep-15 10:41 35.058734 -118.150115 136 2794ft 0kts
05-Sep-15 10:42 35.058096 -118.149360 137 2794ft 8kts
05-Sep-15 10:43 35.057465 -118.151289 270 2794ft 11kts
05-Sep-15 10:44 35.056941 -118.152716 265 2794ft 0kts

Navigation Log

Ident Type
Flight plan parsing failed, navigation log unavailable